sensor_id;sensor_type;location;lat;lon;timestamp;pressure;altitude;pressure_sealevel;temperature;humidity
26719;BME280;14326;50.794;6.060;2023-05-12T00:01:27;99533.31;;;13.00;100.00
26719;BME280;14326;50.794;6.060;2023-05-12T00:04:12;99531.53;;;13.00;100.00
26719;BME280;14326;50.794;6.060;2023-05-12T00:06:47;99529.75;;;12.99;100.00
26719;BME280;14326;50.794;6.060;2023-05-12T00:09:19;99533.31;;;13.01;100.00
26719;BME280;14326;50.794;6.060;2023-05-12T00:12:03;99529.75;;;13.01;100.00
26719;BME280;14326;50.794;6.060;2023-05-12T00:14:38;99527.09;;;13.01;100.00
26719;BME280;14326;50.794;6.060;2023-05-12T00:17:11;99534.19;;;13.03;100.00
26719;BME280;14326;50.794;6.060;2023-05-12T00:19:59;99532.41;;;13.04;100.00
26719;BME280;14326;50.794;6.060;2023-05-12T00:22:26;99527.97;;;13.03;100.00
26719;BME280;14326;50.794;6.060;2023-05-12T00:24:54;99527.09;;;13.01;100.00
26719;BME280;14326;50.794;6.060;2023-05-12T00:27:20;99527.97;;;12.98;100.00
26719;BME280;14326;50.794;6.060;2023-05-12T00:29:47;99523.53;;;12.97;100.00
26719;BME280;14326;50.794;6.060;2023-05-12T00:32:14;99528.84;;;12.97;100.00
26719;BME280;14326;50.794;6.060;2023-05-12T00:34:40;99521.75;;;12.96;100.00
26719;BME280;14326;50.794;6.060;2023-05-12T00:37:07;99523.56;;;12.96;100.00
26719;BME280;14326;50.794;6.060;2023-05-12T00:39:34;99518.22;;;12.96;100.00
26719;BME280;14326;50.794;6.060;2023-05-12T00:42:03;99515.53;;;12.93;100.00
26719;BME280;14326;50.794;6.060;2023-05-12T00:44:30;99521.75;;;12.93;100.00
26719;BME280;14326;50.794;6.060;2023-05-12T00:46:57;99519.97;;;12.91;100.00
26719;BME280;14326;50.794;6.060;2023-05-12T00:49:26;99520.00;;;12.89;100.00
26719;BME280;14326;50.794;6.060;2023-05-12T00:51:53;99513.75;;;12.89;100.00
26719;BME280;14326;50.794;6.060;2023-05-12T00:54:20;99510.22;;;12.88;100.00
26719;BME280;14326;50.794;6.060;2023-05-12T00:56:46;99509.31;;;12.88;100.00
26719;BME280;14326;50.794;6.060;2023-05-12T00:59:17;99502.19;;;12.90;100.00
26719;BME280;14326;50.794;6.060;2023-05-12T01:01:44;99511.09;;;12.89;100.00
26719;BME280;14326;50.794;6.060;2023-05-12T01:04:10;99502.19;;;12.85;100.00
26719;BME280;14326;50.794;6.060;2023-05-12T01:06:40;99499.50;;;12.85;100.00
26719;BME280;14326;50.794;6.060;2023-05-12T01:09:08;99498.63;;;12.86;100.00
26719;BME280;14326;50.794;6.060;2023-05-12T01:11:36;99496.88;;;12.84;100.00
26719;BME280;14326;50.794;6.060;2023-05-12T01:14:02;99495.06;;;12.84;100.00
26719;BME280;14326;50.794;6.060;2023-05-12T01:16:35;99494.22;;;12.84;100.00
26719;BME280;14326;50.794;6.060;2023-05-12T01:19:05;99487.97;;;12.83;100.00
26719;BME280;14326;50.794;6.060;2023-05-12T01:21:32;99487.06;;;12.84;100.00
26719;BME280;14326;50.794;6.060;2023-05-12T01:24:15;99479.97;;;12.83;100.00
26719;BME280;14326;50.794;6.060;2023-05-12T01:27:03;99481.72;;;12.84;100.00
26719;BME280;14326;50.794;6.060;2023-05-12T01:29:57;99478.19;;;12.84;100.00
26719;BME280;14326;50.794;6.060;2023-05-12T01:32:46;99483.53;;;12.84;100.00
26719;BME280;14326;50.794;6.060;2023-05-12T01:35:40;99476.38;;;12.86;100.00
26719;BME280;14326;50.794;6.060;2023-05-12T01:41:31;99475.50;;;12.88;100.00
26719;BME280;14326;50.794;6.060;2023-05-12T01:44:08;99478.16;;;12.88;100.00
26719;BME280;14326;50.794;6.060;2023-05-12T01:46:59;99475.50;;;12.88;100.00
26719;BME280;14326;50.794;6.060;2023-05-12T01:49:56;99479.97;;;12.89;100.00
26719;BME280;14326;50.794;6.060;2023-05-12T01:52:26;99474.63;;;12.89;100.00
26719;BME280;14326;50.794;6.060;2023-05-12T01:55:19;99469.28;;;12.89;100.00
26719;BME280;14326;50.794;6.060;2023-05-12T01:58:03;99473.72;;;12.87;100.00
26719;BME280;14326;50.794;6.060;2023-05-12T02:00:46;99465.72;;;12.89;100.00
26719;BME280;14326;50.794;6.060;2023-05-12T02:03:41;99464.81;;;12.88;100.00
26719;BME280;14326;50.794;6.060;2023-05-12T02:06:36;99468.38;;;12.89;100.00
26719;BME280;14326;50.794;6.060;2023-05-12T02:09:25;99463.91;;;12.92;100.00
26719;BME280;14326;50.794;6.060;2023-05-12T02:15:19;99452.34;;;12.92;100.00
26719;BME280;14326;50.794;6.060;2023-05-12T02:21:02;99455.00;;;12.93;100.00
26719;BME280;14326;50.794;6.060;2023-05-12T02:23:44;99458.56;;;12.92;100.00
26719;BME280;14326;50.794;6.060;2023-05-12T02:26:11;99455.00;;;12.90;100.00
26719;BME280;14326;50.794;6.060;2023-05-12T02:29:01;99452.34;;;12.92;100.00
26719;BME280;14326;50.794;6.060;2023-05-12T02:31:46;99450.56;;;12.91;100.00
26719;BME280;14326;50.794;6.060;2023-05-12T02:34:29;99446.16;;;12.90;100.00
26719;BME280;14326;50.794;6.060;2023-05-12T02:37:33;99450.56;;;12.91;100.00
26719;BME280;14326;50.794;6.060;2023-05-12T02:40:24;99441.66;;;12.92;100.00
26719;BME280;14326;50.794;6.060;2023-05-12T02:43:26;99443.44;;;12.93;100.00
26719;BME280;14326;50.794;6.060;2023-05-12T02:46:09;99437.22;;;12.86;100.00
26719;BME280;14326;50.794;6.060;2023-05-12T02:48:42;99437.25;;;12.83;100.00
26719;BME280;14326;50.794;6.060;2023-05-12T02:51:38;99439.00;;;12.84;100.00
26719;BME280;14326;50.794;6.060;2023-05-12T02:54:17;99437.22;;;12.85;100.00
26719;BME280;14326;50.794;6.060;2023-05-12T02:57:04;99431.91;;;12.86;100.00
26719;BME280;14326;50.794;6.060;2023-05-12T02:59:37;99431.00;;;12.87;100.00
26719;BME280;14326;50.794;6.060;2023-05-12T03:02:04;99433.69;;;12.86;100.00
26719;BME280;14326;50.794;6.060;2023-05-12T03:08:02;99431.00;;;12.87;100.00
26719;BME280;14326;50.794;6.060;2023-05-12T03:10:40;99423.91;;;12.82;100.00
26719;BME280;14326;50.794;6.060;2023-05-12T03:13:17;99426.56;;;12.85;100.00
26719;BME280;14326;50.794;6.060;2023-05-12T03:15:45;99415.91;;;12.83;100.00
26719;BME280;14326;50.794;6.060;2023-05-12T03:18:11;99421.25;;;12.83;100.00
26719;BME280;14326;50.794;6.060;2023-05-12T03:21:10;99420.34;;;12.83;100.00
26719;BME280;14326;50.794;6.060;2023-05-12T03:24:12;99416.75;;;12.85;100.00
26719;BME280;14326;50.794;6.060;2023-05-12T03:27:06;99411.44;;;12.87;100.00
26719;BME280;14326;50.794;6.060;2023-05-12T03:29:49;99415.88;;;12.88;100.00
26719;BME280;14326;50.794;6.060;2023-05-12T03:35:31;99409.63;;;12.90;100.00
26719;BME280;14326;50.794;6.060;2023-05-12T03:38:13;99403.44;;;12.88;100.00
26719;BME280;14326;50.794;6.060;2023-05-12T03:41:03;99398.09;;;12.88;100.00
26719;BME280;14326;50.794;6.060;2023-05-12T03:43:46;99392.78;;;12.82;100.00
26719;BME280;14326;50.794;6.060;2023-05-12T03:46:34;99394.53;;;12.80;100.00
26719;BME280;14326;50.794;6.060;2023-05-12T03:49:16;99391.88;;;12.72;100.00
26719;BME280;14326;50.794;6.060;2023-05-12T03:51:56;99388.38;;;12.72;100.00
26719;BME280;14326;50.794;6.060;2023-05-12T03:54:38;99379.47;;;12.71;100.00
26719;BME280;14326;50.794;6.060;2023-05-12T03:57:22;99387.47;;;12.71;100.00
26719;BME280;14326;50.794;6.060;2023-05-12T04:00:05;99389.25;;;12.71;100.00
26719;BME280;14326;50.794;6.060;2023-05-12T04:02:56;99399.03;;;12.67;100.00
26719;BME280;14326;50.794;6.060;2023-05-12T04:05:30;99394.59;;;12.65;100.00
26719;BME280;14326;50.794;6.060;2023-05-12T04:08:12;99394.59;;;12.65;100.00
26719;BME280;14326;50.794;6.060;2023-05-12T04:10:39;99398.16;;;12.62;100.00
26719;BME280;14326;50.794;6.060;2023-05-12T04:13:26;99398.16;;;12.61;100.00
26719;BME280;14326;50.794;6.060;2023-05-12T04:15:58;99399.94;;;12.62;100.00
26719;BME280;14326;50.794;6.060;2023-05-12T04:18:25;99402.59;;;12.62;100.00
26719;BME280;14326;50.794;6.060;2023-05-12T04:20:53;99403.50;;;12.61;100.00
26719;BME280;14326;50.794;6.060;2023-05-12T04:23:34;99398.16;;;12.55;100.00
26719;BME280;14326;50.794;6.060;2023-05-12T04:26:07;99392.84;;;12.52;100.00
26719;BME280;14326;50.794;6.060;2023-05-12T04:29:02;99400.88;;;12.47;100.00
26719;BME280;14326;50.794;6.060;2023-05-12T04:32:07;99396.44;;;12.39;100.00
26719;BME280;14326;50.794;6.060;2023-05-12T04:34:51;99392.88;;;12.40;100.00
26719;BME280;14326;50.794;6.060;2023-05-12T04:37:21;99398.22;;;12.41;100.00
26719;BME280;14326;50.794;6.060;2023-05-12T04:40:15;99403.56;;;12.40;100.00
26719;BME280;14326;50.794;6.060;2023-05-12T04:43:06;99409.75;;;12.43;100.00
26719;BME280;14326;50.794;6.060;2023-05-12T04:45:34;99410.66;;;12.47;100.00
26719;BME280;14326;50.794;6.060;2023-05-12T04:48:00;99412.44;;;12.40;100.00
26719;BME280;14326;50.794;6.060;2023-05-12T04:50:35;99421.34;;;12.41;100.00
26719;BME280;14326;50.794;6.060;2023-05-12T04:53:02;99419.56;;;12.37;100.00
26719;BME280;14326;50.794;6.060;2023-05-12T04:55:29;99424.00;;;12.38;100.00
26719;BME280;14326;50.794;6.060;2023-05-12T04:57:56;99427.56;;;12.40;100.00
26719;BME280;14326;50.794;6.060;2023-05-12T05:00:25;99428.44;;;12.34;100.00
26719;BME280;14326;50.794;6.060;2023-05-12T05:02:53;99427.56;;;12.29;100.00
26719;BME280;14326;50.794;6.060;2023-05-12T05:05:45;99434.69;;;12.28;100.00
26719;BME280;14326;50.794;6.060;2023-05-12T05:08:34;99435.59;;;12.24;100.00
26719;BME280;14326;50.794;6.060;2023-05-12T05:11:04;99441.78;;;12.28;100.00
26719;BME280;14326;50.794;6.060;2023-05-12T05:13:41;99441.78;;;12.26;100.00
26719;BME280;14326;50.794;6.060;2023-05-12T05:16:22;99448.00;;;12.31;100.00
26719;BME280;14326;50.794;6.060;2023-05-12T05:19:05;99449.81;;;12.29;100.00
26719;BME280;14326;50.794;6.060;2023-05-12T05:21:39;99449.81;;;12.31;100.00
26719;BME280;14326;50.794;6.060;2023-05-12T05:24:44;99456.03;;;12.36;100.00
26719;BME280;14326;50.794;6.060;2023-05-12T05:30:34;99456.00;;;12.45;100.00
26719;BME280;14326;50.794;6.060;2023-05-12T05:33:14;99464.00;;;12.41;100.00
26719;BME280;14326;50.794;6.060;2023-05-12T05:35:42;99455.09;;;12.45;100.00
26719;BME280;14326;50.794;6.060;2023-05-12T05:38:13;99453.34;;;12.48;100.00
26719;BME280;14326;50.794;6.060;2023-05-12T05:41:04;99455.13;;;12.48;100.00
26719;BME280;14326;50.794;6.060;2023-05-12T05:43:31;99455.13;;;12.48;100.00
26719;BME280;14326;50.794;6.060;2023-05-12T05:45:58;99454.22;;;12.50;100.00
26719;BME280;14326;50.794;6.060;2023-05-12T05:48:30;99462.22;;;12.53;100.00
26719;BME280;14326;50.794;6.060;2023-05-12T05:51:36;99467.56;;;12.58;100.00
26719;BME280;14326;50.794;6.060;2023-05-12T05:54:22;99460.44;;;12.58;100.00
26719;BME280;14326;50.794;6.060;2023-05-12T05:57:05;99456.00;;;12.59;100.00
26719;BME280;14326;50.794;6.060;2023-05-12T05:59:53;99465.75;;;12.63;100.00
26719;BME280;14326;50.794;6.060;2023-05-12T06:02:49;99463.09;;;12.69;100.00
26719;BME280;14326;50.794;6.060;2023-05-12T06:05:43;99480.00;;;12.71;100.00
26719;BME280;14326;50.794;6.060;2023-05-12T06:08:44;99477.31;;;12.66;100.00
26719;BME280;14326;50.794;6.060;2023-05-12T06:11:11;99472.84;;;12.67;100.00
26719;BME280;14326;50.794;6.060;2023-05-12T06:13:38;99478.19;;;12.67;100.00
26719;BME280;14326;50.794;6.060;2023-05-12T06:16:08;99482.69;;;12.59;100.00
26719;BME280;14326;50.794;6.060;2023-05-12T06:19:02;99488.88;;;12.61;100.00
26719;BME280;14326;50.794;6.060;2023-05-12T06:24:35;99482.66;;;12.63;100.00
26719;BME280;14326;50.794;6.060;2023-05-12T06:27:02;99486.22;;;12.59;100.00
26719;BME280;14326;50.794;6.060;2023-05-12T06:29:29;99492.44;;;12.57;100.00
26719;BME280;14326;50.794;6.060;2023-05-12T06:31:55;99496.88;;;12.61;100.00
26719;BME280;14326;50.794;6.060;2023-05-12T06:34:22;99502.22;;;12.62;100.00
26719;BME280;14326;50.794;6.060;2023-05-12T06:36:48;99504.91;;;12.64;100.00
26719;BME280;14326;50.794;6.060;2023-05-12T06:39:17;99505.78;;;12.64;100.00
26719;BME280;14326;50.794;6.060;2023-05-12T06:41:55;99496.88;;;12.67;100.00
26719;BME280;14326;50.794;6.060;2023-05-12T06:44:36;99497.78;;;12.69;100.00
26719;BME280;14326;50.794;6.060;2023-05-12T06:47:15;99500.44;;;12.67;100.00
26719;BME280;14326;50.794;6.060;2023-05-12T06:52:51;99505.81;;;12.66;100.00
26719;BME280;14326;50.794;6.060;2023-05-12T06:55:27;99503.13;;;12.69;100.00
26719;BME280;14326;50.794;6.060;2023-05-12T07:01:30;99508.47;;;12.64;100.00
26719;BME280;14326;50.794;6.060;2023-05-12T07:04:03;99518.25;;;12.62;100.00
26719;BME280;14326;50.794;6.060;2023-05-12T07:06:30;99512.03;;;12.65;100.00
26719;BME280;14326;50.794;6.060;2023-05-12T07:09:03;99509.34;;;12.76;100.00
26719;BME280;14326;50.794;6.060;2023-05-12T07:11:47;99503.97;;;12.80;100.00
26719;BME280;14326;50.794;6.060;2023-05-12T07:14:16;99507.53;;;12.81;100.00
26719;BME280;14326;50.794;6.060;2023-05-12T07:17:13;99513.78;;;12.81;100.00
26719;BME280;14326;50.794;6.060;2023-05-12T07:19:48;99517.34;;;12.83;100.00
26719;BME280;14326;50.794;6.060;2023-05-12T07:22:17;99514.66;;;12.88;100.00
26719;BME280;14326;50.794;6.060;2023-05-12T07:24:51;99514.63;;;12.92;100.00
26719;BME280;14326;50.794;6.060;2023-05-12T07:27:41;99518.22;;;12.94;100.00
26719;BME280;14326;50.794;6.060;2023-05-12T07:30:28;99513.72;;;12.98;100.00
26719;BME280;14326;50.794;6.060;2023-05-12T07:32:57;99509.28;;;12.98;100.00
26719;BME280;14326;50.794;6.060;2023-05-12T07:35:25;99511.06;;;13.04;100.00
26719;BME280;14326;50.794;6.060;2023-05-12T07:37:52;99506.59;;;13.07;100.00
26719;BME280;14326;50.794;6.060;2023-05-12T07:40:18;99511.03;;;13.02;100.00
26719;BME280;14326;50.794;6.060;2023-05-12T07:42:45;99514.63;;;13.00;100.00
26719;BME280;14326;50.794;6.060;2023-05-12T07:45:12;99509.28;;;13.00;100.00
26719;BME280;14326;50.794;6.060;2023-05-12T07:47:38;99523.53;;;13.00;100.00
26719;BME280;14326;50.794;6.060;2023-05-12T07:50:07;99511.94;;;13.07;100.00
26719;BME280;14326;50.794;6.060;2023-05-12T07:52:33;99512.81;;;13.09;100.00
26719;BME280;14326;50.794;6.060;2023-05-12T07:55:01;99517.28;;;13.13;100.00
26719;BME280;14326;50.794;6.060;2023-05-12T07:57:45;99518.16;;;13.08;100.00
26719;BME280;14326;50.794;6.060;2023-05-12T08:00:19;99519.06;;;13.11;100.00
26719;BME280;14326;50.794;6.060;2023-05-12T08:02:48;99519.97;;;13.07;100.00
26719;BME280;14326;50.794;6.060;2023-05-12T08:05:34;99528.84;;;13.02;100.00
26719;BME280;14326;50.794;6.060;2023-05-12T08:08:38;99525.31;;;12.94;100.00
26719;BME280;14326;50.794;6.060;2023-05-12T08:11:22;99530.66;;;12.91;100.00
26719;BME280;14326;50.794;6.060;2023-05-12T08:13:49;99535.09;;;12.92;100.00
26719;BME280;14326;50.794;6.060;2023-05-12T08:16:18;99536.91;;;12.87;100.00
26719;BME280;14326;50.794;6.060;2023-05-12T08:18:59;99534.22;;;12.96;100.00
26719;BME280;14326;50.794;6.060;2023-05-12T08:21:53;99535.09;;;12.90;100.00
26719;BME280;14326;50.794;6.060;2023-05-12T08:24:29;99544.91;;;12.90;100.00
26719;BME280;14326;50.794;6.060;2023-05-12T08:26:55;99547.56;;;12.97;100.00
26719;BME280;14326;50.794;6.060;2023-05-12T08:29:22;99544.00;;;13.07;100.00
26719;BME280;14326;50.794;6.060;2023-05-12T08:31:49;99541.31;;;13.17;100.00
26719;BME280;14326;50.794;6.060;2023-05-12T08:34:15;99540.41;;;13.28;100.00
26719;BME280;14326;50.794;6.060;2023-05-12T08:36:42;99550.19;;;13.34;100.00
26719;BME280;14326;50.794;6.060;2023-05-12T08:39:11;99550.16;;;13.40;100.00
26719;BME280;14326;50.794;6.060;2023-05-12T08:41:42;99552.81;;;13.40;100.00
26719;BME280;14326;50.794;6.060;2023-05-12T08:44:10;99554.63;;;13.33;100.00
26719;BME280;14326;50.794;6.060;2023-05-12T08:46:37;99553.72;;;13.39;100.00
26719;BME280;14326;50.794;6.060;2023-05-12T08:49:05;99556.38;;;13.46;100.00
26719;BME280;14326;50.794;6.060;2023-05-12T08:51:37;99559.88;;;13.56;100.00
26719;BME280;14326;50.794;6.060;2023-05-12T08:54:03;99558.09;;;13.57;100.00
26719;BME280;14326;50.794;6.060;2023-05-12T08:56:35;99551.81;;;13.70;100.00
26719;BME280;14326;50.794;6.060;2023-05-12T08:59:02;99556.28;;;13.72;100.00
26719;BME280;14326;50.794;6.060;2023-05-12T09:01:33;99557.94;;;13.94;100.00
26719;BME280;14326;50.794;6.060;2023-05-12T09:04:00;99552.44;;;14.16;100.00
26719;BME280;14326;50.794;6.060;2023-05-12T09:06:27;99559.50;;;14.26;100.00
26719;BME280;14326;50.794;6.060;2023-05-12T09:08:54;99563.16;;;14.14;100.00
26719;BME280;14326;50.794;6.060;2023-05-12T09:11:21;99562.25;;;14.14;100.00
26719;BME280;14326;50.794;6.060;2023-05-12T09:13:57;99567.56;;;14.20;100.00
26719;BME280;14326;50.794;6.060;2023-05-12T09:16:28;99568.47;;;14.22;100.00
26719;BME280;14326;50.794;6.060;2023-05-12T09:18:57;99565.78;;;14.22;100.00
26719;BME280;14326;50.794;6.060;2023-05-12T09:21:24;99571.13;;;14.25;100.00
26719;BME280;14326;50.794;6.060;2023-05-12T09:23:55;99573.75;;;14.32;100.00
26719;BME280;14326;50.794;6.060;2023-05-12T09:26:23;99568.41;;;14.37;100.00
26719;BME280;14326;50.794;6.060;2023-05-12T09:28:53;99574.63;;;14.31;100.00
26719;BME280;14326;50.794;6.060;2023-05-12T09:31:21;99579.09;;;14.40;100.00
26719;BME280;14326;50.794;6.060;2023-05-12T09:33:49;99582.59;;;14.48;100.00
26719;BME280;14326;50.794;6.060;2023-05-12T09:36:16;99590.53;;;14.60;100.00
26719;BME280;14326;50.794;6.060;2023-05-12T09:38:43;99591.44;;;14.56;100.00
26719;BME280;14326;50.794;6.060;2023-05-12T09:41:10;99599.47;;;14.59;100.00
26719;BME280;14326;50.794;6.060;2023-05-12T09:43:43;99592.25;;;14.69;100.00
26719;BME280;14326;50.794;6.060;2023-05-12T09:46:11;99593.03;;;14.82;100.00
26719;BME280;14326;50.794;6.060;2023-05-12T09:48:38;99581.38;;;14.89;100.00
26719;BME280;14326;50.794;6.060;2023-05-12T09:51:10;99591.03;;;15.05;100.00
26719;BME280;14326;50.794;6.060;2023-05-12T09:56:59;99604.34;;;15.15;100.00
26719;BME280;14326;50.794;6.060;2023-05-12T09:59:39;99599.84;;;15.19;100.00
26719;BME280;14326;50.794;6.060;2023-05-12T10:02:34;99602.53;;;15.18;100.00
26719;BME280;14326;50.794;6.060;2023-05-12T10:05:12;99614.25;;;15.06;100.00
26719;BME280;14326;50.794;6.060;2023-05-12T10:07:39;99604.50;;;14.97;100.00
26719;BME280;14326;50.794;6.060;2023-05-12T10:10:07;99611.59;;;15.03;100.00
26719;BME280;14326;50.794;6.060;2023-05-12T10:12:36;99610.56;;;15.19;100.00
26719;BME280;14326;50.794;6.060;2023-05-12T10:15:03;99615.69;;;15.40;100.00
26719;BME280;14326;50.794;6.060;2023-05-12T10:17:34;99617.28;;;15.63;100.00
26719;BME280;14326;50.794;6.060;2023-05-12T10:20:02;99615.19;;;15.89;100.00
26719;BME280;14326;50.794;6.060;2023-05-12T10:22:32;99617.97;;;15.81;99.16
26719;BME280;14326;50.794;6.060;2023-05-12T10:24:59;99618.09;;;15.69;100.00
26719;BME280;14326;50.794;6.060;2023-05-12T10:27:26;99621.72;;;15.67;99.63
26719;BME280;14326;50.794;6.060;2023-05-12T10:29:54;99624.28;;;15.73;100.00
26719;BME280;14326;50.794;6.060;2023-05-12T10:32:21;99626.97;;;15.73;98.74
26719;BME280;14326;50.794;6.060;2023-05-12T10:34:49;99625.09;;;15.84;97.37
26719;BME280;14326;50.794;6.060;2023-05-12T10:37:16;99618.94;;;15.74;97.99
26719;BME280;14326;50.794;6.060;2023-05-12T10:39:46;99625.31;;;15.63;98.06
26719;BME280;14326;50.794;6.060;2023-05-12T10:42:16;99624.28;;;15.74;99.52
26719;BME280;14326;50.794;6.060;2023-05-12T10:44:48;99618.91;;;15.76;96.57
26719;BME280;14326;50.794;6.060;2023-05-12T10:47:15;99634.44;;;16.21;96.31
26719;BME280;14326;50.794;6.060;2023-05-12T10:49:45;99628.66;;;16.50;95.61
26719;BME280;14326;50.794;6.060;2023-05-12T10:55:40;99616.00;;;17.15;91.63
26719;BME280;14326;50.794;6.060;2023-05-12T10:58:31;99621.53;;;17.07;89.48
26719;BME280;14326;50.794;6.060;2023-05-12T11:01:04;99630.00;;;16.82;88.07
26719;BME280;14326;50.794;6.060;2023-05-12T11:03:32;99631.16;;;16.67;88.25
26719;BME280;14326;50.794;6.060;2023-05-12T11:06:00;99621.34;;;16.63;86.75
26719;BME280;14326;50.794;6.060;2023-05-12T11:08:28;99632.78;;;16.75;89.54
26719;BME280;14326;50.794;6.060;2023-05-12T11:10:55;99633.75;;;16.71;87.35
26719;BME280;14326;50.794;6.060;2023-05-12T11:13:23;99623.66;;;16.86;86.78
26719;BME280;14326;50.794;6.060;2023-05-12T11:15:49;99622.16;;;17.20;83.25
26719;BME280;14326;50.794;6.060;2023-05-12T11:18:19;99618.78;;;17.58;84.65
26719;BME280;14326;50.794;6.060;2023-05-12T11:20:46;99621.44;;;18.06;83.47
26719;BME280;14326;50.794;6.060;2023-05-12T11:23:22;99614.53;;;17.94;79.55
26719;BME280;14326;50.794;6.060;2023-05-12T11:25:52;99615.28;;;18.40;84.50
26719;BME280;14326;50.794;6.060;2023-05-12T11:28:19;99620.28;;;18.59;81.55
26719;BME280;14326;50.794;6.060;2023-05-12T11:30:49;99630.69;;;18.34;76.45
26719;BME280;14326;50.794;6.060;2023-05-12T11:33:18;99627.94;;;17.95;76.79
26719;BME280;14326;50.794;6.060;2023-05-12T11:35:45;99629.47;;;17.64;77.75
26719;BME280;14326;50.794;6.060;2023-05-12T11:38:16;99628.69;;;17.56;76.27
26719;BME280;14326;50.794;6.060;2023-05-12T11:40:43;99633.47;;;17.40;75.84
26719;BME280;14326;50.794;6.060;2023-05-12T11:43:11;99636.97;;;17.44;77.30
26719;BME280;14326;50.794;6.060;2023-05-12T11:45:39;99640.78;;;17.81;79.46
26719;BME280;14326;50.794;6.060;2023-05-12T11:48:06;99634.50;;;17.82;74.85
26719;BME280;14326;50.794;6.060;2023-05-12T11:50:36;99646.16;;;17.81;72.35
26719;BME280;14326;50.794;6.060;2023-05-12T11:53:03;99651.19;;;17.52;74.11
26719;BME280;14326;50.794;6.060;2023-05-12T11:55:30;99648.56;;;17.49;74.22
26719;BME280;14326;50.794;6.060;2023-05-12T11:57:59;99645.28;;;17.32;74.57
26719;BME280;14326;50.794;6.060;2023-05-12T12:00:31;99646.03;;;17.38;75.13
26719;BME280;14326;50.794;6.060;2023-05-12T12:03:15;99645.91;;;17.46;76.35
26719;BME280;14326;50.794;6.060;2023-05-12T12:05:59;99649.63;;;17.39;73.85
26719;BME280;14326;50.794;6.060;2023-05-12T12:08:50;99655.06;;;17.36;77.07
26719;BME280;14326;50.794;6.060;2023-05-12T12:11:17;99656.97;;;17.31;74.40
26719;BME280;14326;50.794;6.060;2023-05-12T12:13:47;99663.25;;;17.30;73.93
26719;BME280;14326;50.794;6.060;2023-05-12T12:16:22;99661.47;;;17.29;74.26
26719;BME280;14326;50.794;6.060;2023-05-12T12:18:48;99671.09;;;17.42;73.82
26719;BME280;14326;50.794;6.060;2023-05-12T12:21:15;99668.53;;;17.36;75.49
26719;BME280;14326;50.794;6.060;2023-05-12T12:23:44;99671.94;;;17.44;75.03
26719;BME280;14326;50.794;6.060;2023-05-12T12:26:36;99674.22;;;17.68;72.87
26719;BME280;14326;50.794;6.060;2023-05-12T12:29:07;99669.34;;;17.88;75.55
26719;BME280;14326;50.794;6.060;2023-05-12T12:31:35;99676.06;;;18.11;73.50
26719;BME280;14326;50.794;6.060;2023-05-12T12:34:05;99668.91;;;18.10;72.31
26719;BME280;14326;50.794;6.060;2023-05-12T12:37:20;99675.03;;;18.19;73.24
26719;BME280;14326;50.794;6.060;2023-05-12T12:43:00;99680.59;;;18.09;71.25
26719;BME280;14326;50.794;6.060;2023-05-12T12:45:29;99675.28;;;18.06;71.48
26719;BME280;14326;50.794;6.060;2023-05-12T12:48:02;99677.09;;;18.05;70.88
26719;BME280;14326;50.794;6.060;2023-05-12T12:50:46;99687.03;;;18.02;68.27
26719;BME280;14326;50.794;6.060;2023-05-12T12:56:14;99686.44;;;17.86;64.43
26719;BME280;14326;50.794;6.060;2023-05-12T12:59:02;99691.91;;;17.83;66.77
26719;BME280;14326;50.794;6.060;2023-05-12T13:01:31;99698.22;;;17.80;67.30
26719;BME280;14326;50.794;6.060;2023-05-12T13:04:05;99700.75;;;17.88;66.56
26719;BME280;14326;50.794;6.060;2023-05-12T13:06:39;99705.34;;;17.83;64.70
26719;BME280;14326;50.794;6.060;2023-05-12T13:09:09;99695.53;;;17.80;63.09
26719;BME280;14326;50.794;6.060;2023-05-12T13:11:36;99702.53;;;17.90;66.75
26719;BME280;14326;50.794;6.060;2023-05-12T13:14:02;99694.19;;;18.02;65.59
26719;BME280;14326;50.794;6.060;2023-05-12T13:16:38;99695.03;;;18.05;66.30
26719;BME280;14326;50.794;6.060;2023-05-12T13:19:16;99689.44;;;18.15;68.14
26719;BME280;14326;50.794;6.060;2023-05-12T13:21:48;99697.69;;;18.08;65.61
26719;BME280;14326;50.794;6.060;2023-05-12T13:24:19;99692.56;;;17.95;66.98
26719;BME280;14326;50.794;6.060;2023-05-12T13:27:05;99699.63;;;18.01;67.83
26719;BME280;14326;50.794;6.060;2023-05-12T13:29:42;99706.72;;;18.04;66.08
26719;BME280;14326;50.794;6.060;2023-05-12T13:32:17;99700.66;;;17.92;67.65
26719;BME280;14326;50.794;6.060;2023-05-12T13:34:46;99704.25;;;17.93;68.64
26719;BME280;14326;50.794;6.060;2023-05-12T13:37:13;99697.81;;;18.02;70.04
26719;BME280;14326;50.794;6.060;2023-05-12T13:39:40;99690.63;;;18.02;66.64
26719;BME280;14326;50.794;6.060;2023-05-12T13:42:06;99689.53;;;18.12;66.93
26719;BME280;14326;50.794;6.060;2023-05-12T13:44:33;99693.81;;;18.21;68.15
26719;BME280;14326;50.794;6.060;2023-05-12T13:47:00;99692.19;;;18.14;66.86
26719;BME280;14326;50.794;6.060;2023-05-12T13:49:27;99693.06;;;18.14;65.60
26719;BME280;14326;50.794;6.060;2023-05-12T13:51:55;99693.09;;;18.13;67.22
26719;BME280;14326;50.794;6.060;2023-05-12T13:54:22;99695.47;;;18.28;68.17
26719;BME280;14326;50.794;6.060;2023-05-12T13:56:49;99690.75;;;18.39;68.94
26719;BME280;14326;50.794;6.060;2023-05-12T13:59:15;99698.56;;;18.51;67.36
26719;BME280;14326;50.794;6.060;2023-05-12T14:01:42;99685.59;;;18.70;67.75
26719;BME280;14326;50.794;6.060;2023-05-12T14:04:09;99694.19;;;18.87;64.19
26719;BME280;14326;50.794;6.060;2023-05-12T14:06:36;99686.84;;;18.94;66.11
26719;BME280;14326;50.794;6.060;2023-05-12T14:09:03;99689.41;;;19.00;66.80
26719;BME280;14326;50.794;6.060;2023-05-12T14:11:31;99696.91;;;18.86;64.02
26719;BME280;14326;50.794;6.060;2023-05-12T14:13:57;99693.19;;;18.91;68.02